sensor_id;sensor_type;location;lat;lon;timestamp;P1;durP1;ratioP1;P2;durP2;ratioP2
43905;SDS011;29564;46.622;13.818;2022-11-02T00:00:23;4.70;;;2.47;;
43905;SDS011;29564;46.622;13.818;2022-11-02T00:01:46;4.75;;;2.55;;
43905;SDS011;29564;46.622;13.818;2022-11-02T00:03:08;3.38;;;1.90;;
43905;SDS011;29564;46.622;13.818;2022-11-02T00:04:30;2.95;;;1.92;;
43905;SDS011;29564;46.622;13.818;2022-11-02T00:05:51;3.38;;;2.25;;
43905;SDS011;29564;46.622;13.818;2022-11-02T00:07:13;3.15;;;1.52;;
43905;SDS011;29564;46.622;13.818;2022-11-02T00:08:35;5.40;;;2.10;;
43905;SDS011;29564;46.622;13.818;2022-11-02T00:09:57;4.15;;;1.75;;
43905;SDS011;29564;46.622;13.818;2022-11-02T00:11:19;2.50;;;1.85;;
43905;SDS011;29564;46.622;13.818;2022-11-02T00:12:41;2.53;;;1.70;;
43905;SDS011;29564;46.622;13.818;2022-11-02T00:14:03;4.05;;;2.20;;
43905;SDS011;29564;46.622;13.818;2022-11-02T00:15:26;7.20;;;3.30;;
43905;SDS011;29564;46.622;13.818;2022-11-02T00:16:52;8.90;;;3.03;;
43905;SDS011;29564;46.622;13.818;2022-11-02T00:18:14;3.72;;;2.53;;
43905;SDS011;29564;46.622;13.818;2022-11-02T00:19:36;6.88;;;2.92;;
43905;SDS011;29564;46.622;13.818;2022-11-02T00:20:58;4.85;;;2.58;;
43905;SDS011;29564;46.622;13.818;2022-11-02T00:22:23;5.90;;;2.38;;
43905;SDS011;29564;46.622;13.818;2022-11-02T00:23:46;4.43;;;3.20;;
43905;SDS011;29564;46.622;13.818;2022-11-02T00:25:08;6.22;;;2.22;;
43905;SDS011;29564;46.622;13.818;2022-11-02T00:26:33;7.43;;;2.13;;
43905;SDS011;29564;46.622;13.818;2022-11-02T00:27:56;3.88;;;2.35;;
43905;SDS011;29564;46.622;13.818;2022-11-02T00:29:18;3.38;;;2.30;;
43905;SDS011;29564;46.622;13.818;2022-11-02T00:30:41;5.85;;;2.75;;
43905;SDS011;29564;46.622;13.818;2022-11-02T00:32:03;3.20;;;2.13;;
43905;SDS011;29564;46.622;13.818;2022-11-02T00:33:25;4.72;;;2.65;;
43905;SDS011;29564;46.622;13.818;2022-11-02T00:34:47;6.15;;;2.63;;
43905;SDS011;29564;46.622;13.818;2022-11-02T00:36:09;4.13;;;2.20;;
43905;SDS011;29564;46.622;13.818;2022-11-02T00:37:31;6.82;;;2.50;;
43905;SDS011;29564;46.622;13.818;2022-11-02T00:38:55;4.32;;;2.40;;
43905;SDS011;29564;46.622;13.818;2022-11-02T00:40:17;5.10;;;2.55;;
43905;SDS011;29564;46.622;13.818;2022-11-02T00:41:39;4.60;;;2.28;;
43905;SDS011;29564;46.622;13.818;2022-11-02T00:43:01;2.88;;;1.92;;
43905;SDS011;29564;46.622;13.818;2022-11-02T00:44:23;6.07;;;2.08;;
43905;SDS011;29564;46.622;13.818;2022-11-02T00:45:45;4.07;;;2.30;;
43905;SDS011;29564;46.622;13.818;2022-11-02T00:47:07;11.32;;;2.20;;
43905;SDS011;29564;46.622;13.818;2022-11-02T00:48:29;3.50;;;2.05;;
43905;SDS011;29564;46.622;13.818;2022-11-02T00:49:50;4.55;;;2.25;;
43905;SDS011;29564;46.622;13.818;2022-11-02T00:51:12;4.53;;;2.20;;
43905;SDS011;29564;46.622;13.818;2022-11-02T00:52:34;4.10;;;2.10;;
43905;SDS011;29564;46.622;13.818;2022-11-02T00:53:55;4.03;;;1.73;;
43905;SDS011;29564;46.622;13.818;2022-11-02T00:55:17;3.28;;;1.83;;
43905;SDS011;29564;46.622;13.818;2022-11-02T00:56:39;5.93;;;2.55;;
43905;SDS011;29564;46.622;13.818;2022-11-02T00:58:00;3.03;;;2.15;;
43905;SDS011;29564;46.622;13.818;2022-11-02T00:59:22;8.43;;;2.63;;
43905;SDS011;29564;46.622;13.818;2022-11-02T01:00:44;6.47;;;1.98;;
43905;SDS011;29564;46.622;13.818;2022-11-02T01:02:06;5.30;;;2.42;;
43905;SDS011;29564;46.622;13.818;2022-11-02T01:03:28;6.13;;;1.83;;
43905;SDS011;29564;46.622;13.818;2022-11-02T01:04:50;5.20;;;1.90;;
43905;SDS011;29564;46.622;13.818;2022-11-02T01:06:12;8.45;;;2.40;;
43905;SDS011;29564;46.622;13.818;2022-11-02T01:07:35;3.67;;;1.77;;
43905;SDS011;29564;46.622;13.818;2022-11-02T01:08:57;4.43;;;1.77;;
43905;SDS011;29564;46.622;13.818;2022-11-02T01:10:19;4.75;;;1.65;;
43905;SDS011;29564;46.622;13.818;2022-11-02T01:11:41;6.75;;;2.15;;
43905;SDS011;29564;46.622;13.818;2022-11-02T01:13:03;5.60;;;1.73;;
43905;SDS011;29564;46.622;13.818;2022-11-02T01:14:25;3.25;;;1.95;;
43905;SDS011;29564;46.622;13.818;2022-11-02T01:15:47;4.50;;;2.13;;
43905;SDS011;29564;46.622;13.818;2022-11-02T01:17:09;2.97;;;1.88;;
43905;SDS011;29564;46.622;13.818;2022-11-02T01:18:31;2.97;;;1.88;;
43905;SDS011;29564;46.622;13.818;2022-11-02T01:19:53;1.85;;;1.38;;
43905;SDS011;29564;46.622;13.818;2022-11-02T01:21:14;3.35;;;1.70;;
43905;SDS011;29564;46.622;13.818;2022-11-02T01:22:36;1.88;;;1.42;;
43905;SDS011;29564;46.622;13.818;2022-11-02T01:23:57;2.60;;;1.65;;
43905;SDS011;29564;46.622;13.818;2022-11-02T01:25:19;4.63;;;2.00;;
43905;SDS011;29564;46.622;13.818;2022-11-02T01:26:41;3.35;;;1.52;;
43905;SDS011;29564;46.622;13.818;2022-11-02T01:28:03;5.05;;;1.85;;
43905;SDS011;29564;46.622;13.818;2022-11-02T01:29:24;2.65;;;1.90;;
43905;SDS011;29564;46.622;13.818;2022-11-02T01:30:46;4.47;;;2.17;;
43905;SDS011;29564;46.622;13.818;2022-11-02T01:32:08;2.25;;;1.70;;
43905;SDS011;29564;46.622;13.818;2022-11-02T01:33:30;6.20;;;1.77;;
43905;SDS011;29564;46.622;13.818;2022-11-02T01:34:53;3.08;;;1.52;;
43905;SDS011;29564;46.622;13.818;2022-11-02T01:36:16;8.95;;;2.88;;
43905;SDS011;29564;46.622;13.818;2022-11-02T01:37:41;3.50;;;1.55;;
43905;SDS011;29564;46.622;13.818;2022-11-02T01:39:02;4.00;;;2.05;;
43905;SDS011;29564;46.622;13.818;2022-11-02T01:40:24;3.10;;;1.92;;
43905;SDS011;29564;46.622;13.818;2022-11-02T01:41:49;2.92;;;1.73;;
43905;SDS011;29564;46.622;13.818;2022-11-02T01:43:23;2.70;;;1.65;;
43905;SDS011;29564;46.622;13.818;2022-11-02T01:44:46;2.38;;;1.63;;
43905;SDS011;29564;46.622;13.818;2022-11-02T01:47:36;3.55;;;1.80;;
43905;SDS011;29564;46.622;13.818;2022-11-02T01:49:02;2.67;;;1.50;;
43905;SDS011;29564;46.622;13.818;2022-11-02T01:50:27;7.18;;;2.13;;
43905;SDS011;29564;46.622;13.818;2022-11-02T01:53:32;9.77;;;1.60;;
43905;SDS011;29564;46.622;13.818;2022-11-02T01:54:58;1.70;;;1.58;;
43905;SDS011;29564;46.622;13.818;2022-11-02T01:56:28;5.50;;;1.95;;
43905;SDS011;29564;46.622;13.818;2022-11-02T01:57:56;5.88;;;1.92;;
43905;SDS011;29564;46.622;13.818;2022-11-02T01:59:26;4.93;;;1.38;;
43905;SDS011;29564;46.622;13.818;2022-11-02T02:00:50;7.93;;;1.85;;
43905;SDS011;29564;46.622;13.818;2022-11-02T02:02:16;1.77;;;1.35;;
43905;SDS011;29564;46.622;13.818;2022-11-02T02:03:40;3.47;;;1.58;;
43905;SDS011;29564;46.622;13.818;2022-11-02T02:05:07;5.25;;;1.88;;
43905;SDS011;29564;46.622;13.818;2022-11-02T02:06:30;2.50;;;1.33;;
43905;SDS011;29564;46.622;13.818;2022-11-02T02:07:53;1.63;;;1.33;;
43905;SDS011;29564;46.622;13.818;2022-11-02T02:09:17;5.38;;;2.42;;
43905;SDS011;29564;46.622;13.818;2022-11-02T02:10:40;4.88;;;1.70;;
43905;SDS011;29564;46.622;13.818;2022-11-02T02:12:02;5.47;;;1.95;;
43905;SDS011;29564;46.622;13.818;2022-11-02T02:13:26;4.47;;;1.67;;
43905;SDS011;29564;46.622;13.818;2022-11-02T02:14:48;2.47;;;1.45;;
43905;SDS011;29564;46.622;13.818;2022-11-02T02:16:14;3.65;;;1.58;;
43905;SDS011;29564;46.622;13.818;2022-11-02T02:17:51;6.18;;;2.35;;
43905;SDS011;29564;46.622;13.818;2022-11-02T02:19:23;2.38;;;1.58;;
43905;SDS011;29564;46.622;13.818;2022-11-02T02:42:24;5.90;;;1.60;;
43905;SDS011;29564;46.622;13.818;2022-11-02T02:46:14;2.60;;;2.13;;
43905;SDS011;29564;46.622;13.818;2022-11-02T02:47:46;4.10;;;1.30;;
43905;SDS011;29564;46.622;13.818;2022-11-02T02:49:21;6.22;;;1.58;;
43905;SDS011;29564;46.622;13.818;2022-11-02T02:50:47;7.35;;;1.55;;
43905;SDS011;29564;46.622;13.818;2022-11-02T02:52:09;5.25;;;1.35;;
43905;SDS011;29564;46.622;13.818;2022-11-02T02:53:36;3.72;;;1.77;;
43905;SDS011;29564;46.622;13.818;2022-11-02T02:55:05;2.08;;;1.20;;
43905;SDS011;29564;46.622;13.818;2022-11-02T02:56:28;2.03;;;1.50;;
43905;SDS011;29564;46.622;13.818;2022-11-02T02:57:56;2.70;;;1.77;;
43905;SDS011;29564;46.622;13.818;2022-11-02T02:59:27;3.47;;;1.35;;
43905;SDS011;29564;46.622;13.818;2022-11-02T03:00:51;3.70;;;1.60;;
43905;SDS011;29564;46.622;13.818;2022-11-02T03:02:35;3.75;;;1.30;;
43905;SDS011;29564;46.622;13.818;2022-11-02T03:11:49;3.05;;;1.30;;
43905;SDS011;29564;46.622;13.818;2022-11-02T03:13:34;4.97;;;1.88;;
43905;SDS011;29564;46.622;13.818;2022-11-02T03:15:29;3.00;;;1.60;;
43905;SDS011;29564;46.622;13.818;2022-11-02T03:19:41;3.05;;;1.67;;
43905;SDS011;29564;46.622;13.818;2022-11-02T03:22:25;4.18;;;1.88;;
43905;SDS011;29564;46.622;13.818;2022-11-02T03:25:18;1.63;;;1.17;;
43905;SDS011;29564;46.622;13.818;2022-11-02T03:27:17;1.33;;;1.10;;
43905;SDS011;29564;46.622;13.818;2022-11-02T03:30:13;2.80;;;1.23;;
43905;SDS011;29564;46.622;13.818;2022-11-02T03:33:19;3.45;;;1.48;;
43905;SDS011;29564;46.622;13.818;2022-11-02T03:34:59;3.47;;;1.60;;
43905;SDS011;29564;46.622;13.818;2022-11-02T03:36:31;2.78;;;1.52;;
43905;SDS011;29564;46.622;13.818;2022-11-02T03:38:01;7.32;;;1.80;;
43905;SDS011;29564;46.622;13.818;2022-11-02T03:39:48;2.75;;;1.60;;
43905;SDS011;29564;46.622;13.818;2022-11-02T03:41:13;1.45;;;1.35;;
43905;SDS011;29564;46.622;13.818;2022-11-02T03:42:36;4.13;;;1.40;;
43905;SDS011;29564;46.622;13.818;2022-11-02T03:44:05;2.70;;;1.73;;
43905;SDS011;29564;46.622;13.818;2022-11-02T03:45:30;5.53;;;1.80;;
43905;SDS011;29564;46.622;13.818;2022-11-02T03:46:58;1.40;;;1.30;;
43905;SDS011;29564;46.622;13.818;2022-11-02T03:48:20;3.05;;;1.98;;
43905;SDS011;29564;46.622;13.818;2022-11-02T03:49:45;2.40;;;0.95;;
43905;SDS011;29564;46.622;13.818;2022-11-02T03:51:10;6.40;;;1.73;;
43905;SDS011;29564;46.622;13.818;2022-11-02T03:52:35;2.88;;;1.33;;
43905;SDS011;29564;46.622;13.818;2022-11-02T03:55:34;4.45;;;1.83;;
43905;SDS011;29564;46.622;13.818;2022-11-02T03:56:59;1.70;;;1.38;;
43905;SDS011;29564;46.622;13.818;2022-11-02T03:58:24;2.58;;;1.80;;
43905;SDS011;29564;46.622;13.818;2022-11-02T03:59:46;1.42;;;1.33;;
43905;SDS011;29564;46.622;13.818;2022-11-02T04:01:08;1.83;;;1.25;;
43905;SDS011;29564;46.622;13.818;2022-11-02T04:02:30;1.45;;;1.30;;
43905;SDS011;29564;46.622;13.818;2022-11-02T04:03:56;3.33;;;1.60;;
43905;SDS011;29564;46.622;13.818;2022-11-02T04:05:17;6.40;;;1.50;;
43905;SDS011;29564;46.622;13.818;2022-11-02T04:06:40;7.15;;;2.03;;
43905;SDS011;29564;46.622;13.818;2022-11-02T04:08:04;5.05;;;1.70;;
43905;SDS011;29564;46.622;13.818;2022-11-02T04:09:42;3.38;;;1.52;;
43905;SDS011;29564;46.622;13.818;2022-11-02T04:11:04;7.10;;;1.17;;
43905;SDS011;29564;46.622;13.818;2022-11-02T04:12:44;3.92;;;1.65;;
43905;SDS011;29564;46.622;13.818;2022-11-02T04:14:25;8.98;;;1.70;;
43905;SDS011;29564;46.622;13.818;2022-11-02T04:15:58;2.50;;;1.42;;
43905;SDS011;29564;46.622;13.818;2022-11-02T04:17:20;2.10;;;1.75;;
43905;SDS011;29564;46.622;13.818;2022-11-02T04:19:00;2.10;;;1.63;;
43905;SDS011;29564;46.622;13.818;2022-11-02T04:20:40;1.77;;;1.33;;
43905;SDS011;29564;46.622;13.818;2022-11-02T04:22:02;2.63;;;1.55;;
43905;SDS011;29564;46.622;13.818;2022-11-02T04:23:42;3.05;;;1.45;;
43905;SDS011;29564;46.622;13.818;2022-11-02T04:25:22;1.52;;;1.25;;
43905;SDS011;29564;46.622;13.818;2022-11-02T04:26:44;2.08;;;1.52;;
43905;SDS011;29564;46.622;13.818;2022-11-02T04:28:06;4.28;;;1.75;;
43905;SDS011;29564;46.622;13.818;2022-11-02T04:29:29;3.47;;;1.98;;
43905;SDS011;29564;46.622;13.818;2022-11-02T04:30:51;4.88;;;2.25;;
43905;SDS011;29564;46.622;13.818;2022-11-02T04:32:12;4.53;;;1.73;;
43905;SDS011;29564;46.622;13.818;2022-11-02T04:33:34;4.18;;;1.67;;
43905;SDS011;29564;46.622;13.818;2022-11-02T04:34:57;1.40;;;0.85;;
43905;SDS011;29564;46.622;13.818;2022-11-02T04:36:19;1.67;;;1.45;;
43905;SDS011;29564;46.622;13.818;2022-11-02T04:37:41;1.63;;;1.35;;
43905;SDS011;29564;46.622;13.818;2022-11-02T04:39:22;1.63;;;1.48;;
43905;SDS011;29564;46.622;13.818;2022-11-02T04:40:43;2.45;;;1.33;;
43905;SDS011;29564;46.622;13.818;2022-11-02T04:42:05;3.13;;;1.67;;
43905;SDS011;29564;46.622;13.818;2022-11-02T04:43:27;2.65;;;1.92;;
43905;SDS011;29564;46.622;13.818;2022-11-02T04:44:49;9.63;;;2.20;;
43905;SDS011;29564;46.622;13.818;2022-11-02T04:46:10;3.00;;;1.80;;
43905;SDS011;29564;46.622;13.818;2022-11-02T04:47:32;2.00;;;1.80;;
43905;SDS011;29564;46.622;13.818;2022-11-02T04:48:55;2.13;;;1.67;;
43905;SDS011;29564;46.622;13.818;2022-11-02T04:50:17;1.77;;;1.55;;
43905;SDS011;29564;46.622;13.818;2022-11-02T04:51:39;4.00;;;1.80;;
43905;SDS011;29564;46.622;13.818;2022-11-02T04:53:03;2.63;;;1.38;;
43905;SDS011;29564;46.622;13.818;2022-11-02T04:54:27;1.30;;;1.10;;
43905;SDS011;29564;46.622;13.818;2022-11-02T04:55:51;4.60;;;2.00;;
43905;SDS011;29564;46.622;13.818;2022-11-02T04:57:13;2.45;;;1.45;;
43905;SDS011;29564;46.622;13.818;2022-11-02T04:58:34;5.68;;;2.05;;
43905;SDS011;29564;46.622;13.818;2022-11-02T04:59:56;3.40;;;2.05;;
43905;SDS011;29564;46.622;13.818;2022-11-02T05:01:18;3.20;;;1.73;;
43905;SDS011;29564;46.622;13.818;2022-11-02T05:02:40;4.70;;;2.40;;
43905;SDS011;29564;46.622;13.818;2022-11-02T05:04:02;8.18;;;2.63;;
43905;SDS011;29564;46.622;13.818;2022-11-02T05:05:24;7.78;;;2.67;;
43905;SDS011;29564;46.622;13.818;2022-11-02T05:06:45;15.77;;;3.05;;
43905;SDS011;29564;46.622;13.818;2022-11-02T05:08:07;5.85;;;2.65;;
43905;SDS011;29564;46.622;13.818;2022-11-02T05:09:29;8.82;;;3.22;;
43905;SDS011;29564;46.622;13.818;2022-11-02T05:10:54;9.13;;;2.10;;
43905;SDS011;29564;46.622;13.818;2022-11-02T05:12:16;7.53;;;2.63;;
43905;SDS011;29564;46.622;13.818;2022-11-02T05:13:39;6.88;;;3.22;;
43905;SDS011;29564;46.622;13.818;2022-11-02T05:15:02;6.30;;;3.05;;
43905;SDS011;29564;46.622;13.818;2022-11-02T05:16:24;9.40;;;2.80;;
43905;SDS011;29564;46.622;13.818;2022-11-02T05:17:48;4.20;;;2.10;;
43905;SDS011;29564;46.622;13.818;2022-11-02T05:19:10;9.57;;;3.60;;
43905;SDS011;29564;46.622;13.818;2022-11-02T05:20:32;9.30;;;3.28;;
43905;SDS011;29564;46.622;13.818;2022-11-02T05:21:57;6.57;;;3.67;;
43905;SDS011;29564;46.622;13.818;2022-11-02T05:23:18;12.27;;;3.72;;
43905;SDS011;29564;46.622;13.818;2022-11-02T05:24:41;8.13;;;4.40;;
43905;SDS011;29564;46.622;13.818;2022-11-02T05:26:04;10.35;;;3.83;;
43905;SDS011;29564;46.622;13.818;2022-11-02T05:35:56;8.90;;;3.63;;
43905;SDS011;29564;46.622;13.818;2022-11-02T05:37:19;7.80;;;3.10;;
43905;SDS011;29564;46.622;13.818;2022-11-02T05:38:40;9.73;;;3.45;;
43905;SDS011;29564;46.622;13.818;2022-11-02T05:40:02;7.80;;;3.03;;
43905;SDS011;29564;46.622;13.818;2022-11-02T05:41:24;9.60;;;3.15;;
43905;SDS011;29564;46.622;13.818;2022-11-02T05:42:46;15.73;;;2.75;;
43905;SDS011;29564;46.622;13.818;2022-11-02T05:44:07;6.80;;;2.95;;
43905;SDS011;29564;46.622;13.818;2022-11-02T05:45:29;8.18;;;3.55;;
43905;SDS011;29564;46.622;13.818;2022-11-02T05:46:50;4.95;;;2.30;;
43905;SDS011;29564;46.622;13.818;2022-11-02T05:48:12;6.10;;;2.13;;
43905;SDS011;29564;46.622;13.818;2022-11-02T05:49:33;5.05;;;2.28;;
43905;SDS011;29564;46.622;13.818;2022-11-02T05:50:55;6.93;;;2.40;;
43905;SDS011;29564;46.622;13.818;2022-11-02T05:52:20;4.40;;;1.83;;
43905;SDS011;29564;46.622;13.818;2022-11-02T05:53:42;9.43;;;2.35;;
